Time;durP1;ratioP1;P1;durP2;ratioP2;P2;SDS_P1;SDS_P2;PMS_P1;PMS_P2;Temp;Humidity;BMP_temperature;BMP_pressure;BME280_temperature;BME280_humidity;BME280_pressure;Samples;Min_cycle;Max_cycle;Signal;HPM_P1;HPM_P2
2022/03/29 00:02:02;;;;;;;;;6.00;5.33;;;;;21.91;36.70;100262.05;110195;1265;19707;-54
2022/03/29 00:04:30;;;;;;;;;6.00;5.00;;;;;21.91;36.53;100262.41;110274;1264;20434;-50
2022/03/29 00:06:57;;;;;;;;;4.67;4.00;;;;;21.92;36.64;100262.48;110223;1265;18866;-51
2022/03/29 00:09:24;;;;;;;;;5.67;5.00;;;;;21.91;36.57;100259.83;110182;1264;20160;-52
2022/03/29 00:11:51;;;;;;;;;6.00;6.00;;;;;21.91;36.75;100252.78;110259;1265;19712;-52
2022/03/29 00:14:19;;;;;;;;;5.33;5.00;;;;;21.93;36.59;100257.66;110194;1264;18789;-52
2022/03/29 00:16:46;;;;;;;;;6.00;5.00;;;;;21.92;36.66;100257.73;110181;1264;19487;-51
2022/03/29 00:19:13;;;;;;;;;6.00;5.67;;;;;21.92;36.62;100257.58;110173;1264;22067;-56
2022/03/29 00:21:41;;;;;;;;;3.50;3.50;;;;;21.91;36.60;100256.56;110203;1264;22796;-50
2022/03/29 00:24:08;;;;;;;;;6.33;6.00;;;;;21.92;36.54;100250.07;110239;1264;33588;-52
2022/03/29 00:26:36;;;;;;;;;3.67;3.00;;;;;21.91;36.72;100247.07;110170;1265;18774;-52
2022/03/29 00:29:03;;;;;;;;;5.00;5.00;;;;;21.91;36.60;100247.91;110179;1265;19032;-51
2022/03/29 00:31:31;;;;;;;;;5.00;5.00;;;;;21.92;36.51;100249.98;110293;1264;19836;-51
2022/03/29 00:33:58;;;;;;;;;5.33;3.00;;;;;21.92;36.45;100245.27;110195;1265;22300;-51
2022/03/29 00:36:26;;;;;;;;;6.00;6.00;;;;;21.91;36.53;100243.89;110062;1265;18785;-51
2022/03/29 00:38:54;;;;;;;;;5.67;5.67;;;;;21.91;36.67;100237.92;110148;1265;19807;-51
2022/03/29 00:41:21;;;;;;;;;6.00;5.33;;;;;21.91;36.57;100236.95;110204;1265;19148;-51
2022/03/29 00:43:48;;;;;;;;;7.00;6.00;;;;;21.91;36.59;100242.76;110211;1265;22191;-51
2022/03/29 00:46:16;;;;;;;;;5.00;4.00;;;;;21.91;36.66;100242.21;110208;1264;19683;-51
2022/03/29 00:48:43;;;;;;;;;6.00;4.00;;;;;21.91;36.63;100234.10;110216;1265;22935;-51
2022/03/29 00:51:10;;;;;;;;;6.33;6.00;;;;;21.89;36.54;100227.59;110283;1264;18834;-50
2022/03/29 00:53:38;;;;;;;;;6.00;5.00;;;;;21.91;36.51;100231.70;110199;1265;19822;-52
2022/03/29 00:56:05;;;;;;;;;4.00;4.00;;;;;21.90;36.78;100228.30;110173;1265;18614;-51
2022/03/29 00:58:33;;;;;;;;;6.67;5.67;;;;;21.90;36.63;100223.14;110259;1264;19018;-52
2022/03/29 01:01:01;;;;;;;;;3.33;3.33;;;;;21.90;36.65;100216.42;110213;1265;19477;-52
2022/03/29 01:03:30;;;;;;;;;5.00;5.00;;;;;21.90;36.33;100215.30;110197;1264;18362;-53
2022/03/29 01:05:57;;;;;;;;;6.00;6.00;;;;;21.89;36.55;100214.79;110202;1265;18717;-53
2022/03/29 01:08:25;;;;;;;;;5.00;4.50;;;;;21.90;36.63;100207.40;110192;1265;19521;-50
2022/03/29 01:10:53;;;;;;;;;5.00;5.00;;;;;21.90;36.52;100203.50;110241;1264;18496;-51
2022/03/29 01:13:20;;;;;;;;;4.33;4.00;;;;;21.91;36.52;100199.55;110205;1264;19176;-54
2022/03/29 01:15:47;;;;;;;;;5.67;5.00;;;;;21.89;36.58;100189.90;110210;1264;20374;-52
2022/03/29 01:18:15;;;;;;;;;6.00;6.00;;;;;21.89;36.51;100190.27;110195;1265;18580;-51
2022/03/29 01:20:42;;;;;;;;;6.00;5.50;;;;;21.91;36.65;100190.29;110212;1264;18809;-52
2022/03/29 01:23:09;;;;;;;;;5.00;5.00;;;;;21.90;36.55;100185.63;110175;1264;19781;-52
2022/03/29 01:25:37;;;;;;;;;5.50;5.50;;;;;21.89;36.42;100180.88;110219;1265;18886;-52
2022/03/29 01:28:04;;;;;;;;;6.00;6.00;;;;;21.90;36.48;100182.97;110195;1265;22730;-52
2022/03/29 01:30:31;;;;;;;;;3.00;3.00;;;;;21.89;36.58;100179.91;110211;1264;20124;-53
2022/03/29 01:32:58;;;;;;;;;5.00;5.00;;;;;21.89;36.42;100185.74;110211;1265;18570;-51
2022/03/29 01:35:25;;;;;;;;;5.33;5.00;;;;;21.88;36.58;100182.71;110228;1264;18718;-51
2022/03/29 01:37:53;;;;;;;;;5.50;5.00;;;;;21.89;36.49;100167.56;110208;1265;21764;-52
2022/03/29 01:40:20;;;;;;;;;6.33;6.00;;;;;21.89;36.67;100168.83;110188;1264;18545;-51
2022/03/29 01:42:47;;;;;;;;;6.00;6.00;;;;;21.88;36.50;100156.23;110210;1264;18972;-52
2022/03/29 01:45:15;;;;;;;;;3.00;3.00;;;;;21.88;36.41;100148.79;110184;1265;19497;-51
2022/03/29 01:47:42;;;;;;;;;3.67;3.67;;;;;21.89;36.41;100154.48;110160;1265;19788;-52
2022/03/29 01:50:09;;;;;;;;;5.00;5.00;;;;;21.89;36.48;100143.98;110217;1265;19154;-53
2022/03/29 01:52:36;;;;;;;;;3.00;3.00;;;;;21.87;36.48;100146.48;110210;1265;20876;-52
2022/03/29 01:55:04;;;;;;;;;5.00;5.00;;;;;21.88;36.74;100149.98;110220;1265;18514;-51
2022/03/29 01:57:31;;;;;;;;;5.00;3.00;;;;;21.89;36.61;100150.15;110207;1264;18827;-51
2022/03/29 02:02:43;;;;;;;;;4.00;4.00;;;;;21.89;36.47;100157.39;110193;1265;22245;-52
2022/03/29 02:05:10;;;;;;;;;5.50;5.50;;;;;21.88;36.47;100150.23;110149;1265;18873;-49
2022/03/29 02:07:38;;;;;;;;;5.00;5.00;;;;;21.88;36.63;100149.80;110241;1264;19612;-50
2022/03/29 02:10:06;;;;;;;;;5.00;5.00;;;;;21.90;36.56;100155.83;110250;1265;18376;-51
2022/03/29 02:12:33;;;;;;;;;4.33;4.33;;;;;21.88;36.48;100153.92;110235;1264;19373;-52
2022/03/29 02:15:01;;;;;;;;;6.00;5.00;;;;;21.89;36.40;100157.02;110205;1265;19599;-52
2022/03/29 02:17:28;;;;;;;;;6.00;5.00;;;;;21.89;36.54;100148.13;110275;1264;18524;-52
2022/03/29 02:19:55;;;;;;;;;6.00;5.00;;;;;21.89;36.60;100150.10;110312;1264;21636;-53
2022/03/29 02:22:22;;;;;;;;;5.00;5.00;;;;;21.89;36.57;100154.64;110279;1264;19455;-52
2022/03/29 02:24:50;;;;;;;;;5.00;5.00;;;;;21.88;36.60;100152.16;110271;1264;22300;-51
2022/03/29 02:27:17;;;;;;;;;4.67;4.67;;;;;21.89;36.60;100150.06;110234;1264;18667;-52
2022/03/29 02:29:44;;;;;;;;;5.00;5.00;;;;;21.89;36.53;100145.02;110244;1264;19805;-53
2022/03/29 02:32:11;;;;;;;;;5.00;4.67;;;;;21.88;36.61;100146.40;110290;1264;22839;-51
2022/03/29 02:34:38;;;;;;;;;5.00;5.00;;;;;21.87;36.57;100146.82;110302;1264;18828;-51
2022/03/29 02:37:06;;;;;;;;;5.00;3.67;;;;;21.88;36.60;100145.64;110286;1265;19800;-51
2022/03/29 02:39:33;;;;;;;;;5.33;5.00;;;;;21.88;36.48;100142.62;110278;1264;19994;-50
2022/03/29 02:42:00;;;;;;;;;5.00;5.00;;;;;21.88;36.52;100141.45;110231;1264;18744;-51
2022/03/29 02:44:27;;;;;;;;;5.00;5.00;;;;;21.89;36.63;100148.70;110259;1264;19511;-55
2022/03/29 02:46:56;;;;;;;;;5.00;5.00;;;;;21.88;36.72;100145.35;110286;1264;18394;-54
2022/03/29 02:49:24;;;;;;;;;5.00;5.00;;;;;21.87;36.59;100147.05;110214;1264;18629;-55
2022/03/29 02:51:52;;;;;;;;;3.33;3.33;;;;;21.88;36.64;100153.91;110274;1264;19570;-51
2022/03/29 02:54:20;;;;;;;;;4.00;4.00;;;;;21.87;36.55;100154.86;110252;1264;18584;-52
2022/03/29 02:56:47;;;;;;;;;6.00;5.67;;;;;21.89;36.71;100155.59;110268;1264;18895;-52
2022/03/29 02:59:14;;;;;;;;;4.67;4.67;;;;;21.88;36.67;100153.13;110248;1264;19548;-50
2022/03/29 03:01:41;;;;;;;;;3.00;3.00;;;;;21.88;36.75;100151.43;110311;1264;22726;-51
2022/03/29 03:04:08;;;;;;;;;3.50;3.50;;;;;21.87;36.64;100151.64;110219;1264;18813;-51
2022/03/29 03:06:36;;;;;;;;;6.00;5.00;;;;;21.86;36.67;100154.95;110173;1264;19790;-51
2022/03/29 03:09:03;;;;;;;;;5.00;5.00;;;;;21.87;36.61;100153.56;110213;1264;18438;-50
2022/03/29 03:11:30;;;;;;;;;5.00;5.00;;;;;21.86;36.51;100150.96;110287;1264;20040;-52
2022/03/29 03:13:57;;;;;;;;;5.00;5.00;;;;;21.86;36.57;100146.38;110313;1264;19659;-54
2022/03/29 03:16:26;;;;;;;;;4.67;4.67;;;;;21.85;36.56;100144.57;110184;1264;18407;-50
2022/03/29 03:18:53;;;;;;;;;4.67;4.33;;;;;21.86;36.59;100147.42;110239;1264;18836;-50
2022/03/29 03:21:20;;;;;;;;;5.33;5.00;;;;;21.85;36.59;100148.39;110235;1264;21035;-51
2022/03/29 03:23:48;;;;;;;;;6.00;5.00;;;;;21.86;36.67;100147.72;110279;1264;18643;-52
2022/03/29 03:26:15;;;;;;;;;5.00;5.00;;;;;21.85;36.63;100148.23;110269;1264;19033;-51
2022/03/29 03:28:42;;;;;;;;;6.67;5.67;;;;;21.85;36.46;100148.60;110315;1264;20652;-53
2022/03/29 03:31:10;;;;;;;;;6.00;6.00;;;;;21.84;36.76;100152.84;110123;1264;18476;-54
2022/03/29 03:33:37;;;;;;;;;5.50;5.00;;;;;21.84;36.60;100151.63;110265;1264;18714;-51
2022/03/29 03:36:05;;;;;;;;;5.00;4.00;;;;;21.84;36.53;100148.52;110100;1264;22781;-50
2022/03/29 03:38:32;;;;;;;;;3.33;3.33;;;;;21.83;36.50;100139.73;110170;1264;18483;-50
2022/03/29 03:40:59;;;;;;;;;6.00;5.00;;;;;21.83;36.50;100136.09;110282;1264;21514;-54
2022/03/29 03:43:26;;;;;;;;;3.00;3.00;;;;;21.85;36.49;100141.34;110266;1264;20051;-52
2022/03/29 03:45:54;;;;;;;;;6.00;5.33;;;;;21.84;36.59;100141.13;110243;1264;20013;-50
2022/03/29 03:48:22;;;;;;;;;5.00;5.00;;;;;21.84;36.56;100143.27;110238;1265;18824;-51
2022/03/29 03:50:49;;;;;;;;;5.00;3.50;;;;;21.85;36.61;100143.10;110262;1264;19652;-54
2022/03/29 03:53:16;;;;;;;;;5.00;4.33;;;;;21.85;36.64;100145.49;110236;1264;19885;-51
2022/03/29 03:55:43;;;;;;;;;5.00;4.67;;;;;21.84;36.62;100141.33;110300;1265;19138;-53
2022/03/29 03:58:13;;;;;;;;;5.00;5.00;;;;;21.85;36.68;100146.25;110263;1264;20173;-51
2022/03/29 04:00:41;;;;;;;;;5.00;5.00;;;;;21.84;36.39;100148.30;110237;1264;18335;-52
2022/03/29 04:03:09;;;;;;;;;5.00;4.33;;;;;21.85;36.64;100145.29;110259;1264;18638;-51
2022/03/29 04:05:37;;;;;;;;;5.00;5.00;;;;;21.85;36.71;100142.60;110266;1264;19787;-50
2022/03/29 04:08:04;;;;;;;;;5.00;5.00;;;;;21.84;36.61;100140.45;110290;1264;22942;-51
2022/03/29 04:10:33;;;;;;;;;5.33;5.33;;;;;21.84;36.66;100139.23;110282;1264;18895;-53
2022/03/29 04:13:01;;;;;;;;;6.00;5.00;;;;;21.84;36.56;100140.58;110289;1264;19609;-52
2022/03/29 04:15:28;;;;;;;;;5.00;5.00;;;;;21.85;36.55;100146.98;110283;1264;18372;-51
2022/03/29 04:17:56;;;;;;;;;5.00;5.00;;;;;21.84;36.73;100147.05;110272;1265;18921;-51
2022/03/29 04:20:23;;;;;;;;;5.33;5.33;;;;;21.84;36.71;100142.46;110236;1264;20356;-51
2022/03/29 04:22:50;;;;;;;;;7.00;5.50;;;;;21.83;36.53;100144.77;110327;1264;18508;-52
2022/03/29 04:25:18;;;;;;;;;5.00;3.00;;;;;21.84;36.65;100140.00;110278;1264;18827;-52
2022/03/29 04:27:45;;;;;;;;;5.33;5.33;;;;;21.83;36.66;100135.96;110248;1264;19904;-50
2022/03/29 04:30:12;;;;;;;;;5.00;5.00;;;;;21.84;36.68;100131.48;110252;1264;18620;-50
2022/03/29 04:32:39;;;;;;;;;7.00;6.00;;;;;21.84;36.68;100131.64;110217;1264;18995;-55
2022/03/29 04:35:06;;;;;;;;;6.00;5.33;;;;;21.83;36.91;100131.90;110304;1265;19481;-54
2022/03/29 04:37:34;;;;;;;;;6.50;6.00;;;;;21.83;36.69;100136.96;110276;1264;18586;-52
2022/03/29 04:40:01;;;;;;;;;6.67;5.67;;;;;21.84;36.64;100136.93;110258;1264;18853;-51
2022/03/29 04:42:28;;;;;;;;;6.00;5.00;;;;;21.83;36.79;100133.91;110235;1265;19558;-47
2022/03/29 04:44:55;;;;;;;;;3.00;3.00;;;;;21.83;36.59;100134.15;110272;1264;18496;-51
2022/03/29 04:47:22;;;;;;;;;3.00;3.00;;;;;21.82;36.70;100137.54;110244;1264;22101;-52
2022/03/29 04:49:50;;;;;;;;;4.00;4.00;;;;;21.83;36.77;100143.09;110297;1264;19489;-52
2022/03/29 04:52:17;;;;;;;;;6.00;6.00;;;;;21.82;36.80;100141.15;110287;1264;18515;-51
2022/03/29 04:54:44;;;;;;;;;6.00;5.00;;;;;21.82;36.74;100141.28;110257;1264;20573;-52
2022/03/29 04:57:11;;;;;;;;;6.00;6.00;;;;;21.82;36.71;100143.20;110256;1264;19770;-52
2022/03/29 04:59:38;;;;;;;;;6.00;6.00;;;;;21.83;36.84;100146.83;110271;1265;22807;-52
2022/03/29 05:02:06;;;;;;;;;6.00;5.00;;;;;21.82;36.73;100144.45;110272;1265;18816;-51
2022/03/29 05:04:33;;;;;;;;;3.67;3.00;;;;;21.81;36.80;100140.51;110254;1265;20818;-52
2022/03/29 05:07:00;;;;;;;;;6.67;6.00;;;;;21.81;36.82;100139.59;110213;1264;18470;-52
2022/03/29 05:09:28;;;;;;;;;5.00;5.00;;;;;21.81;36.77;100136.60;110283;1264;20108;-51
2022/03/29 05:11:57;;;;;;;;;6.00;5.00;;;;;21.81;36.62;100135.42;110261;1264;19515;-53
2022/03/29 05:14:24;;;;;;;;;5.33;5.00;;;;;21.83;36.74;100138.85;110263;1264;18438;-52
2022/03/29 05:16:51;;;;;;;;;6.00;6.00;;;;;21.82;36.76;100136.66;110324;1264;18619;-52
2022/03/29 05:19:18;;;;;;;;;6.00;5.00;;;;;21.82;36.80;100134.67;110263;1264;21099;-51
2022/03/29 05:21:45;;;;;;;;;5.00;5.00;;;;;21.82;36.53;100140.05;110226;1264;18583;-53
2022/03/29 05:24:13;;;;;;;;;7.00;6.00;;;;;21.81;36.65;100139.79;110205;1264;18968;-48
2022/03/29 05:26:40;;;;;;;;;5.00;5.00;;;;;21.81;36.60;100138.95;110265;1264;20645;-52
2022/03/29 05:29:09;;;;;;;;;5.67;5.00;;;;;21.81;36.94;100140.73;110310;1265;18598;-54
2022/03/29 05:31:36;;;;;;;;;6.00;5.33;;;;;21.81;36.74;100140.08;110193;1264;18721;-51
2022/03/29 05:34:03;;;;;;;;;5.00;5.00;;;;;21.81;36.71;100137.99;110131;1264;19754;-51
2022/03/29 05:36:31;;;;;;;;;5.00;5.00;;;;;21.80;36.56;100134.67;110162;1264;18469;-54
2022/03/29 05:38:58;;;;;;;;;6.00;5.67;;;;;21.81;36.63;100139.16;110165;1265;19027;-51
2022/03/29 05:41:25;;;;;;;;;9.00;8.00;;;;;21.81;36.58;100140.01;110275;1264;19503;-52
2022/03/29 05:43:53;;;;;;;;;8.00;6.00;;;;;21.80;36.60;100142.10;110292;1264;18461;-55
2022/03/29 05:49:05;;;;;;;;;5.00;5.00;;;;;21.80;36.71;100145.07;110257;1264;19885;-57
2022/03/29 05:51:32;;;;;;;;;5.00;5.00;;;;;21.80;36.58;100141.60;110228;1263;18474;-54
2022/03/29 05:54:00;;;;;;;;;5.00;5.00;;;;;21.81;36.74;100147.72;110228;1264;18881;-55
2022/03/29 05:56:28;;;;;;;;;6.00;6.00;;;;;21.86;36.95;100145.42;110221;1264;23745;-54
2022/03/29 05:58:55;;;;;;;;;5.00;5.00;;;;;21.93;37.89;100147.61;110288;1264;18588;-57
2022/03/29 06:01:22;;;;;;;;;5.00;5.00;;;;;21.96;38.42;100149.43;110253;1264;21547;-56
2022/03/29 06:03:49;;;;;;;;;6.00;6.00;;;;;22.01;38.59;100149.05;110206;1264;19460;-55
2022/03/29 06:06:16;;;;;;;;;5.33;5.33;;;;;22.03;38.77;100151.12;110206;1264;18347;-56
2022/03/29 06:08:44;;;;;;;;;6.00;6.00;;;;;22.03;38.59;100147.18;110239;1264;19052;-53
2022/03/29 06:11:11;;;;;;;;;9.00;7.00;;;;;21.99;38.48;100151.25;110178;1264;20012;-56
2022/03/29 06:13:38;;;;;;;;;6.67;6.00;;;;;21.97;38.99;100155.27;110170;1264;18518;-56
2022/03/29 06:16:06;;;;;;;;;5.67;5.67;;;;;21.98;38.93;100152.34;110231;1264;18983;-53
2022/03/29 06:18:33;;;;;;;;;8.33;7.00;;;;;22.04;39.30;100154.28;110198;1264;20096;-54
2022/03/29 06:21:00;;;;;;;;;6.00;6.00;;;;;22.12;39.76;100158.89;110216;1264;19980;-55
2022/03/29 06:23:27;;;;;;;;;6.33;6.33;;;;;22.14;39.74;100153.41;110204;1264;18916;-56
2022/03/29 06:25:55;;;;;;;;;6.50;6.50;;;;;22.13;39.73;100159.15;110226;1264;22647;-54
2022/03/29 06:28:22;;;;;;;;;9.00;6.00;;;;;22.09;39.56;100158.94;110202;1264;18368;-53
2022/03/29 06:30:49;;;;;;;;;6.67;6.67;;;;;22.09;39.84;100155.59;110202;1264;18956;-54
2022/03/29 06:33:16;;;;;;;;;5.00;5.00;;;;;22.12;39.85;100159.25;110117;1264;19810;-54
2022/03/29 06:35:45;;;;;;;;;7.00;7.00;;;;;22.10;39.92;100157.73;110218;1264;18611;-56
2022/03/29 06:38:12;;;;;;;;;6.00;5.00;;;;;22.10;39.88;100157.16;110287;1264;19141;-57
2022/03/29 06:40:40;;;;;;;;;6.00;5.67;;;;;22.09;39.71;100153.29;110210;1264;22943;-54
2022/03/29 06:43:07;;;;;;;;;7.00;7.00;;;;;22.08;40.20;100150.70;110177;1264;18591;-55
2022/03/29 06:45:34;;;;;;;;;9.00;9.00;;;;;22.07;40.49;100152.97;110270;1264;18726;-54
2022/03/29 06:48:02;;;;;;;;;10.00;6.67;;;;;22.13;40.94;100149.71;110242;1264;19585;-56
2022/03/29 06:50:29;;;;;;;;;5.00;5.00;;;;;22.14;41.02;100151.23;110215;1264;18459;-57
2022/03/29 06:52:57;;;;;;;;;8.00;8.00;;;;;22.13;41.00;100154.92;110229;1264;22665;-56
2022/03/29 06:55:24;;;;;;;;;8.00;7.00;;;;;22.12;40.89;100155.70;110236;1264;20116;-53
2022/03/29 06:57:52;;;;;;;;;9.00;7.33;;;;;22.12;40.96;100154.70;110227;1264;18517;-57
2022/03/29 07:00:20;;;;;;;;;7.00;7.00;;;;;22.12;41.11;100157.98;110225;1264;23076;-55
2022/03/29 07:02:48;;;;;;;;;6.00;6.00;;;;;22.12;40.96;100161.16;110199;1264;19591;-57
2022/03/29 07:05:15;;;;;;;;;7.67;7.33;;;;;22.11;40.89;100166.45;110139;1264;18595;-58
2022/03/29 07:07:42;;;;;;;;;7.00;7.00;;;;;22.11;41.19;100163.01;110259;1264;18830;-55
2022/03/29 07:12:54;;;;;;;;;7.00;7.00;;;;;22.12;41.09;100162.17;110158;1264;18484;-58
2022/03/29 07:15:22;;;;;;;;;7.00;6.67;;;;;22.13;41.41;100163.73;110053;1267;19214;-56
2022/03/29 07:17:49;;;;;;;;;8.00;7.00;;;;;22.14;41.37;100164.12;110148;1264;19373;-57
2022/03/29 07:20:17;;;;;;;;;5.00;5.00;;;;;22.16;41.64;100160.98;110198;1264;21357;-52
2022/03/29 07:22:44;;;;;;;;;9.00;7.67;;;;;22.17;41.60;100157.80;110260;1264;18806;-54
2022/03/29 07:25:12;;;;;;;;;6.33;6.00;;;;;22.16;41.38;100158.96;110232;1264;19765;-55
2022/03/29 07:27:39;;;;;;;;;8.00;6.67;;;;;22.11;41.20;100165.74;110228;1264;19823;-56
2022/03/29 07:30:06;;;;;;;;;11.00;7.00;;;;;22.09;41.40;100161.84;110220;1264;19009;-54
2022/03/29 07:32:34;;;;;;;;;8.00;8.00;;;;;22.05;41.48;100164.75;110248;1264;20179;-55
2022/03/29 07:35:01;;;;;;;;;6.00;6.00;;;;;22.03;41.52;100164.47;110280;1264;18699;-53
2022/03/29 07:37:28;;;;;;;;;10.00;7.00;;;;;22.01;41.36;100161.19;110201;1264;18762;-58
2022/03/29 07:39:56;;;;;;;;;9.00;7.00;;;;;22.06;41.25;100163.70;110222;1265;19543;-56
2022/03/29 07:42:23;;;;;;;;;5.00;5.00;;;;;22.05;41.11;100155.63;110157;1264;18773;-55
2022/03/29 07:44:50;;;;;;;;;8.50;7.50;;;;;22.04;40.43;100152.06;110197;1265;18948;-56
2022/03/29 07:47:18;;;;;;;;;6.00;6.00;;;;;22.11;40.74;100152.70;110127;1264;20845;-56
2022/03/29 07:49:46;;;;;;;;;9.00;7.00;;;;;22.13;40.54;100149.84;110216;1264;24062;-54
2022/03/29 07:52:13;;;;;;;;;7.00;7.00;;;;;22.11;40.74;100145.54;110003;1264;281889;-57
2022/03/29 07:54:40;;;;;;;;;6.67;6.00;;;;;22.09;40.90;100139.77;110225;1264;22135;-55
2022/03/29 07:57:08;;;;;;;;;8.67;7.00;;;;;22.07;40.56;100138.38;110201;1265;21064;-56
2022/03/29 07:59:37;;;;;;;;;7.00;6.33;;;;;22.10;40.61;100141.70;110235;1264;18778;-55
2022/03/29 08:02:04;;;;;;;;;7.67;6.00;;;;;22.08;40.65;100140.84;110137;1264;22053;-56
2022/03/29 08:04:31;;;;;;;;;11.50;9.50;;;;;21.99;40.33;100137.02;109952;1264;19358;-53
2022/03/29 08:06:58;;;;;;;;;23.00;21.00;;;;;21.89;39.63;100141.15;110172;1264;19068;-53
2022/03/29 08:09:25;;;;;;;;;43.00;38.67;;;;;21.71;39.60;100132.30;110173;1264;19783;-56
2022/03/29 08:11:53;;;;;;;;;91.67;65.00;;;;;21.78;39.71;100133.81;110157;1264;19001;-53
2022/03/29 08:14:20;;;;;;;;;145.25;106.75;;;;;21.89;39.87;100130.63;110174;1264;19103;-55
2022/03/29 08:16:48;;;;;;;;;144.00;106.00;;;;;21.97;39.99;100125.89;110220;1264;19556;-56
2022/03/29 08:19:15;;;;;;;;;134.33;99.33;;;;;22.04;40.08;100130.52;110146;1264;19139;-52
2022/03/29 08:21:52;;;;;;;;;103.33;81.00;;;;;22.09;40.30;100128.68;110190;1264;18852;-52
2022/03/29 08:24:20;;;;;;;;;89.33;62.67;;;;;22.15;40.34;100127.05;110155;1264;19666;-52
2022/03/29 08:26:48;;;;;;;;;87.67;62.67;;;;;22.19;40.74;100125.39;110207;1264;19487;-58
2022/03/29 08:29:16;;;;;;;;;82.00;58.00;;;;;22.22;40.80;100125.86;110159;1264;19081;-58
2022/03/29 08:31:43;;;;;;;;;68.00;54.00;;;;;22.23;40.84;100123.06;110207;1264;19395;-54
2022/03/29 08:34:11;;;;;;;;;78.00;58.00;;;;;22.25;41.00;100126.65;110219;1264;18816;-56
2022/03/29 08:36:38;;;;;;;;;77.50;56.00;;;;;22.24;41.05;100129.23;110198;1265;18862;-55
2022/03/29 08:39:06;;;;;;;;;73.67;56.00;;;;;22.23;41.16;100127.86;110183;1264;19796;-56
2022/03/29 08:41:33;;;;;;;;;72.67;52.67;;;;;22.23;40.87;100125.63;110213;1264;18711;-53
2022/03/29 08:44:01;;;;;;;;;68.67;52.00;;;;;22.21;41.15;100123.19;110308;1264;18817;-55
2022/03/29 08:46:28;;;;;;;;;63.50;47.00;;;;;22.22;41.08;100122.21;110248;1264;19568;-54
2022/03/29 08:48:55;;;;;;;;;69.33;49.67;;;;;22.23;40.67;100117.18;110211;1264;18830;-54
2022/03/29 08:51:23;;;;;;;;;60.00;46.50;;;;;22.24;41.20;100120.52;110182;1264;19010;-56
2022/03/29 08:53:50;;;;;;;;;59.33;44.67;;;;;22.27;41.57;100120.27;110139;1264;20127;-53
2022/03/29 08:56:17;;;;;;;;;57.00;42.00;;;;;22.23;41.39;100125.04;110246;1264;22737;-55
2022/03/29 08:58:44;;;;;;;;;51.67;42.67;;;;;22.05;40.36;100116.80;110272;1264;19032;-53
2022/03/29 09:01:11;;;;;;;;;45.00;37.00;;;;;21.92;39.74;100122.96;110182;1265;23081;-56
2022/03/29 09:03:39;;;;;;;;;46.00;39.00;;;;;21.82;39.25;100119.28;110229;1264;21274;-53
2022/03/29 09:06:07;;;;;;;;;42.00;36.50;;;;;21.84;39.05;100121.61;110189;1264;22684;-53
2022/03/29 09:08:34;;;;;;;;;42.33;33.67;;;;;21.94;38.95;100116.47;110230;1264;22246;-54
2022/03/29 09:11:02;;;;;;;;;40.33;33.67;;;;;22.02;39.05;100118.70;110250;1264;18835;-57
2022/03/29 09:13:31;;;;;;;;;40.50;36.50;;;;;22.08;40.16;100116.36;110178;1264;19501;-54
2022/03/29 09:15:58;;;;;;;;;35.50;31.00;;;;;22.12;39.93;100116.74;110209;1263;19548;-55
2022/03/29 09:18:25;;;;;;;;;37.67;33.00;;;;;22.15;40.88;100115.29;110136;1264;19336;-52
2022/03/29 09:20:53;;;;;;;;;38.67;32.67;;;;;22.16;40.63;100112.23;110156;1265;18948;-58
2022/03/29 09:23:21;;;;;;;;;34.67;30.00;;;;;22.18;40.80;100117.24;110218;1264;20217;-56
2022/03/29 09:25:49;;;;;;;;;46.00;34.00;;;;;22.19;41.15;100116.03;110218;1264;18890;-53
2022/03/29 09:28:17;;;;;;;;;30.00;28.00;;;;;22.18;41.14;100116.66;110223;1264;18923;-56
2022/03/29 09:30:44;;;;;;;;;36.00;29.00;;;;;22.21;41.41;100118.94;110225;1264;25161;-55
2022/03/29 09:33:12;;;;;;;;;36.00;26.67;;;;;22.21;42.07;100117.97;110221;1263;19243;-53
2022/03/29 09:35:40;;;;;;;;;31.33;29.00;;;;;22.20;41.79;100117.34;110192;1265;21622;-56
2022/03/29 09:38:07;;;;;;;;;37.67;25.67;;;;;22.25;42.14;100116.11;110206;1264;19628;-52
2022/03/29 09:40:35;;;;;;;;;32.33;26.00;;;;;22.31;42.32;100116.27;110026;1265;18892;-55
2022/03/29 09:43:02;;;;;;;;;39.50;32.00;;;;;22.33;42.18;100110.98;110137;1264;23115;-54
2022/03/29 09:45:29;;;;;;;;;37.00;31.00;;;;;22.32;41.84;100113.16;110169;1265;19423;-54
2022/03/29 09:47:57;;;;;;;;;31.33;25.00;;;;;22.33;41.95;100105.98;110221;1264;18652;-56
2022/03/29 09:50:24;;;;;;;;;29.33;25.00;;;;;22.35;41.74;100109.44;110181;1264;22944;-56
2022/03/29 09:52:51;;;;;;;;;29.50;27.00;;;;;22.39;41.86;100102.81;110218;1264;19711;-55
2022/03/29 09:55:20;;;;;;;;;32.67;26.00;;;;;22.38;41.81;100100.04;110119;1265;18848;-52
2022/03/29 09:57:47;;;;;;;;;27.50;24.00;;;;;22.39;41.62;100102.17;110177;1264;19095;-56
2022/03/29 10:00:15;;;;;;;;;32.00;25.00;;;;;22.39;41.49;100099.16;110247;1265;20955;-55
2022/03/29 10:02:42;;;;;;;;;27.50;23.50;;;;;22.36;41.51;100096.81;110194;1264;18967;-54
2022/03/29 10:05:10;;;;;;;;;26.00;21.50;;;;;22.30;41.12;100097.14;110249;1264;19407;-56
2022/03/29 10:07:37;;;;;;;;;21.33;21.00;;;;;22.21;40.31;100095.71;110161;1264;19634;-55
2022/03/29 10:10:04;;;;;;;;;23.33;20.67;;;;;22.10;38.79;100089.73;110098;1264;18770;-56
2022/03/29 10:12:31;;;;;;;;;22.67;20.00;;;;;21.97;36.85;100085.34;110164;1264;18785;-55
2022/03/29 10:14:59;;;;;;;;;21.67;20.67;;;;;21.84;35.65;100079.21;110214;1264;19615;-54
2022/03/29 10:17:26;;;;;;;;;25.00;20.00;;;;;21.67;34.81;100079.31;110223;1264;20373;-55
2022/03/29 10:19:54;;;;;;;;;19.67;19.00;;;;;21.57;34.64;100083.10;110236;1264;19052;-58
2022/03/29 10:22:21;;;;;;;;;18.67;16.33;;;;;21.56;34.16;100081.58;110209;1264;20923;-51
2022/03/29 10:24:48;;;;;;;;;20.33;18.67;;;;;21.53;33.28;100077.95;110220;1264;19298;-57
2022/03/29 10:27:15;;;;;;;;;20.00;19.00;;;;;21.51;33.12;100072.05;110190;1264;19751;-54
2022/03/29 10:29:42;;;;;;;;;16.50;15.00;;;;;21.55;32.67;100074.06;110105;1264;22656;-58
2022/03/29 10:32:10;;;;;;;;;18.00;17.00;;;;;21.54;32.25;100066.63;110227;1265;18728;-56
2022/03/29 10:34:40;;;;;;;;;16.67;14.00;;;;;21.47;32.41;100072.41;110123;1265;18891;-56
2022/03/29 10:37:08;;;;;;;;;16.67;16.00;;;;;21.47;31.63;100065.70;110102;1265;22265;-54
2022/03/29 10:39:35;;;;;;;;;18.67;17.33;;;;;21.44;31.49;100062.10;110212;1264;22226;-53
2022/03/29 10:42:02;;;;;;;;;17.00;14.67;;;;;21.46;31.30;100069.30;110185;1264;18926;-57
2022/03/29 10:44:29;;;;;;;;;18.67;17.67;;;;;21.46;31.15;100069.30;110242;1264;22367;-52
2022/03/29 10:46:57;;;;;;;;;13.33;13.00;;;;;21.42;30.77;100066.23;110218;1264;18656;-54
2022/03/29 10:49:24;;;;;;;;;13.67;12.00;;;;;21.41;30.37;100064.38;110135;1264;22987;-54
2022/03/29 10:51:51;;;;;;;;;15.00;13.00;;;;;21.40;30.41;100060.02;110181;1264;19520;-57
2022/03/29 10:54:19;;;;;;;;;12.00;12.00;;;;;21.41;30.35;100055.70;110203;1264;18926;-53
2022/03/29 10:56:46;;;;;;;;;12.33;12.00;;;;;21.42;30.29;100054.55;110152;1264;18943;-54
2022/03/29 10:59:13;;;;;;;;;12.50;12.50;;;;;21.43;30.04;100045.23;110187;1264;20583;-54
2022/03/29 11:01:42;;;;;;;;;11.33;10.67;;;;;21.40;29.68;100047.92;110195;1264;19039;-54
2022/03/29 11:04:09;;;;;;;;;12.00;11.33;;;;;21.30;29.64;100052.13;110193;1265;18823;-54
2022/03/29 11:06:36;;;;;;;;;13.00;12.67;;;;;21.23;29.61;100047.70;110112;1264;20068;-54
2022/03/29 11:09:04;;;;;;;;;14.00;13.33;;;;;21.19;29.47;100043.67;110176;1264;19003;-53
2022/03/29 11:11:31;;;;;;;;;13.00;12.00;;;;;21.21;29.62;100041.22;110204;1265;22813;-55
2022/03/29 11:13:58;;;;;;;;;15.33;14.00;;;;;21.23;29.23;100037.33;110233;1264;19601;-54
2022/03/29 11:16:25;;;;;;;;;12.67;12.67;;;;;21.24;29.23;100043.42;110164;1264;19005;-54
2022/03/29 11:18:52;;;;;;;;;11.33;10.00;;;;;21.24;29.32;100038.27;110042;1264;18987;-55
2022/03/29 11:21:20;;;;;;;;;13.00;12.00;;;;;21.27;29.09;100036.31;110162;1264;19542;-53